Time;durP1;ratioP1;P1;durP2;ratioP2;P2;SDS_P1;SDS_P2;PMS_P1;PMS_P2;Temp;Humidity;BMP_temperature;BMP_pressure;BME280_temperature;BME280_humidity;BME280_pressure;Samples;Min_cycle;Max_cycle;Signal;HPM_P1;HPM_P2
2024/02/26 00:00:54;0.00;0.00;0.62;0.00;0.00;0.62;2.33;1.90;;;22.10;24.20;;;;;;2269249;61;20373;-68
2024/02/26 00:03:42;0.00;0.00;0.62;0.00;0.00;0.62;3.33;1.70;;;22.10;24.20;;;;;;2268785;61;20398;-68
2024/02/26 00:06:27;0.00;0.00;0.62;0.00;0.00;0.62;3.60;2.03;;;22.10;24.20;;;;;;2268345;61;20987;-68
2024/02/26 00:09:12;0.00;0.00;0.62;0.00;0.00;0.62;3.20;2.10;;;22.10;24.20;;;;;;2268230;61;20387;-68
2024/02/26 00:11:59;0.00;0.00;0.62;0.00;0.00;0.62;2.63;1.93;;;22.00;24.10;;;;;;2268785;61;20421;-68
2024/02/26 00:14:46;0.00;0.00;0.62;0.00;0.00;0.62;2.90;1.90;;;22.00;24.10;;;;;;2268385;61;20355;-68
2024/02/26 00:17:32;0.00;0.00;0.62;0.00;0.00;0.62;2.43;1.80;;;22.00;24.10;;;;;;2263778;61;20368;-68
2024/02/26 00:20:17;0.00;0.00;0.62;0.00;0.00;0.62;2.50;1.53;;;22.10;24.20;;;;;;2264327;61;20391;-68
2024/02/26 00:23:01;0.00;0.00;0.62;0.00;0.00;0.62;4.03;2.13;;;22.00;24.10;;;;;;2264178;61;20476;-70
2024/02/26 00:25:48;0.00;0.00;0.62;0.00;0.00;0.62;3.30;2.23;;;22.00;24.10;;;;;;2260819;61;20503;-67
2024/02/26 00:28:32;0.00;0.00;0.62;0.00;0.00;0.62;6.60;2.00;;;22.00;24.10;;;;;;2263813;61;20442;-68
2024/02/26 00:31:17;0.00;0.00;0.62;0.00;0.00;0.62;2.70;1.87;;;22.00;24.10;;;;;;2260014;61;20372;-68
2024/02/26 00:34:02;0.00;0.00;0.62;0.00;0.00;0.62;3.10;2.00;;;22.00;24.10;;;;;;2260613;61;20360;-67
2024/02/26 00:36:46;0.00;0.00;0.62;0.00;0.00;0.62;3.83;2.27;;;22.00;24.10;;;;;;2260001;61;20427;-70
2024/02/26 00:39:31;0.00;0.00;0.62;0.00;0.00;0.62;2.67;1.80;;;22.00;24.10;;;;;;2264273;61;20437;-68
2024/02/26 00:42:18;0.00;0.00;0.62;0.00;0.00;0.62;3.60;2.20;;;22.00;24.10;;;;;;2263942;61;20465;-68
2024/02/26 00:45:04;0.00;0.00;0.62;0.00;0.00;0.62;2.47;2.13;;;22.00;24.10;;;;;;2263952;61;20391;-69
2024/02/26 00:47:49;0.00;0.00;0.62;0.00;0.00;0.62;2.50;1.83;;;22.00;24.10;;;;;;2263742;61;20360;-67
2024/02/26 00:50:34;0.00;0.00;0.62;0.00;0.00;0.62;3.03;2.13;;;22.00;24.10;;;;;;2264029;61;20808;-67
2024/02/26 00:53:19;0.00;0.00;0.62;0.00;0.00;0.62;3.10;2.30;;;22.00;24.10;;;;;;2263883;61;20414;-68
2024/02/26 00:56:04;0.00;0.00;0.62;0.00;0.00;0.62;2.90;2.00;;;22.00;24.10;;;;;;2263945;61;20398;-68
2024/02/26 00:58:51;0.00;0.00;0.62;0.00;0.00;0.62;2.87;2.00;;;21.90;24.00;;;;;;2263629;61;20406;-67
2024/02/26 01:01:36;0.00;0.00;0.62;0.00;0.00;0.62;2.80;2.17;;;21.90;24.10;;;;;;2263779;61;20375;-68
2024/02/26 01:04:20;0.00;0.00;0.62;0.00;0.00;0.62;4.07;1.97;;;21.90;24.10;;;;;;2260526;61;20753;-67
2024/02/26 01:07:05;0.00;0.00;0.62;0.00;0.00;0.62;3.07;2.37;;;21.90;24.10;;;;;;2260143;61;20379;-68
2024/02/26 01:09:50;0.00;0.00;0.62;0.00;0.00;0.62;2.50;1.73;;;22.00;24.10;;;;;;2263843;61;20379;-69
2024/02/26 01:12:35;0.00;0.00;0.62;0.00;0.00;0.62;3.17;2.03;;;21.90;24.00;;;;;;2261337;61;20372;-69
2024/02/26 01:15:23;0.00;0.00;0.62;0.00;0.00;0.62;2.70;2.10;;;21.90;24.00;;;;;;2260086;61;20465;-68
2024/02/26 01:18:08;0.00;0.00;0.62;0.00;0.00;0.62;2.83;2.23;;;21.90;24.00;;;;;;2256472;61;20397;-68
2024/02/26 01:20:54;0.00;0.00;0.62;0.00;0.00;0.62;3.20;2.03;;;21.90;24.10;;;;;;2262299;61;20405;-68
2024/02/26 01:23:39;0.00;0.00;0.62;0.00;0.00;0.62;2.70;1.90;;;21.90;24.10;;;;;;2259542;61;20389;-70
2024/02/26 01:26:23;0.00;0.00;0.62;0.00;0.00;0.62;3.20;2.13;;;21.90;24.10;;;;;;2259878;61;20510;-68
2024/02/26 01:29:08;0.00;0.00;0.62;0.00;0.00;0.62;3.00;2.23;;;21.90;24.00;;;;;;2259703;61;20428;-68
2024/02/26 01:31:54;0.00;0.00;0.62;0.00;0.00;0.62;2.87;1.83;;;21.90;24.10;;;;;;2256921;61;20904;-69
2024/02/26 01:34:39;0.00;0.00;0.62;0.00;0.00;0.62;3.77;2.10;;;21.90;24.10;;;;;;2260695;61;20535;-71
2024/02/26 01:37:24;0.00;0.00;0.62;0.00;0.00;0.62;2.63;1.70;;;21.90;24.10;;;;;;2260946;61;20816;-67
2024/02/26 01:40:11;0.00;0.00;0.62;0.00;0.00;0.62;2.47;2.00;;;21.90;24.10;;;;;;2257291;61;20389;-68
2024/02/26 01:42:55;0.00;0.00;0.62;0.00;0.00;0.62;3.07;2.33;;;21.90;24.10;;;;;;2260468;61;20364;-68
2024/02/26 01:45:40;0.00;0.00;0.62;0.00;0.00;0.62;2.80;2.30;;;21.90;24.10;;;;;;2261151;61;20360;-68
2024/02/26 01:48:26;0.00;0.00;0.62;0.00;0.00;0.62;2.83;2.13;;;21.90;24.10;;;;;;2268751;61;20390;-68
2024/02/26 01:51:14;0.00;0.00;0.62;0.00;0.00;0.62;3.27;2.33;;;21.90;24.10;;;;;;2269220;61;20363;-67
2024/02/26 01:54:01;0.00;0.00;0.62;0.00;0.00;0.62;2.83;1.90;;;21.90;24.10;;;;;;2269061;61;20402;-67
2024/02/26 01:56:46;0.00;0.00;0.62;0.00;0.00;0.62;2.47;1.83;;;21.90;24.10;;;;;;2268564;61;20355;-68
2024/02/26 01:59:32;0.00;0.00;0.62;0.00;0.00;0.62;2.80;1.90;;;21.90;24.10;;;;;;2268988;61;20426;-68
2024/02/26 02:02:17;0.00;0.00;0.62;0.00;0.00;0.62;3.03;2.03;;;21.90;24.10;;;;;;2265204;61;20927;-69
2024/02/26 02:05:04;0.00;0.00;0.62;0.00;0.00;0.62;3.40;2.50;;;21.90;24.10;;;;;;2268566;61;20398;-70
2024/02/26 02:07:49;0.00;0.00;0.62;0.00;0.00;0.62;2.70;1.90;;;21.80;24.00;;;;;;2269122;61;20367;-68
2024/02/26 02:10:35;0.00;0.00;0.62;0.00;0.00;0.62;2.50;1.80;;;21.90;24.10;;;;;;2269402;61;20920;-67
2024/02/26 02:13:20;0.00;0.00;0.62;0.00;0.00;0.62;3.20;2.40;;;21.90;24.10;;;;;;2265049;61;20885;-67
2024/02/26 02:16:05;0.00;0.00;0.62;0.00;0.00;0.62;2.97;2.10;;;21.90;24.10;;;;;;2262272;61;20422;-67
2024/02/26 02:18:50;0.00;0.00;0.62;0.00;0.00;0.62;2.40;1.60;;;21.80;24.00;;;;;;2264683;61;20422;-69
2024/02/26 02:21:36;0.00;0.00;0.62;0.00;0.00;0.62;2.47;1.80;;;21.90;24.10;;;;;;2261144;61;20445;-68
2024/02/26 02:24:21;0.00;0.00;0.62;0.00;0.00;0.62;2.37;1.80;;;21.80;24.00;;;;;;2264106;61;20678;-68
2024/02/26 02:27:05;0.00;0.00;0.62;0.00;0.00;0.62;2.30;1.57;;;21.90;24.10;;;;;;2264415;61;20372;-67
2024/02/26 02:29:50;0.00;0.00;0.62;0.00;0.00;0.62;2.67;1.50;;;21.80;24.00;;;;;;2259999;61;20393;-72
2024/02/26 02:32:37;0.00;0.00;0.62;0.00;0.00;0.62;2.73;1.77;;;21.80;24.00;;;;;;2267442;58;20460;-68
2024/02/26 02:35:22;0.00;0.00;0.62;0.00;0.00;0.62;2.47;1.60;;;21.80;24.00;;;;;;2264258;61;20364;-68
2024/02/26 02:38:08;0.00;0.00;0.62;0.00;0.00;0.62;2.13;1.83;;;21.80;24.00;;;;;;2261219;61;20383;-67
2024/02/26 02:40:53;0.00;0.00;0.62;0.00;0.00;0.62;3.13;1.70;;;21.80;24.00;;;;;;2264218;61;20928;-69
2024/02/26 02:43:37;0.00;0.00;0.62;0.00;0.00;0.62;3.60;2.10;;;21.80;24.00;;;;;;2264390;61;20951;-69
2024/02/26 02:46:22;0.00;0.00;0.62;0.00;0.00;0.62;3.00;1.77;;;21.80;24.00;;;;;;2264244;61;20521;-72
2024/02/26 02:49:09;0.00;0.00;0.62;0.00;0.00;0.62;2.30;1.70;;;21.80;24.00;;;;;;2264145;61;20383;-69
2024/02/26 02:51:54;0.00;0.00;0.62;0.00;0.00;0.62;3.27;2.00;;;21.80;24.00;;;;;;2264418;61;20364;-68
2024/02/26 02:54:41;0.00;0.00;0.62;0.00;0.00;0.62;3.37;2.03;;;21.80;24.00;;;;;;2260824;61;20360;-68
2024/02/26 02:57:26;0.00;0.00;0.62;0.00;0.00;0.62;2.37;1.83;;;21.80;24.00;;;;;;2263908;61;20425;-68
2024/02/26 03:00:12;0.00;0.00;0.62;0.00;0.00;0.62;3.23;2.23;;;21.80;24.00;;;;;;2265843;55;20810;-67
2024/02/26 03:02:57;0.00;0.00;0.62;0.00;0.00;0.62;2.30;1.70;;;21.80;24.00;;;;;;2259654;61;20496;-67
2024/02/26 03:05:42;0.00;0.00;0.62;0.00;0.00;0.62;2.50;1.80;;;21.80;24.00;;;;;;2259621;61;20365;-67
2024/02/26 03:08:26;0.00;0.00;0.62;0.00;0.00;0.62;3.07;1.53;;;21.80;24.00;;;;;;2259380;61;20364;-66
2024/02/26 03:11:15;0.00;0.00;0.62;0.00;0.00;0.62;3.30;2.20;;;21.80;24.00;;;;;;2262720;61;20818;-67
2024/02/26 03:14:00;0.00;0.00;0.62;0.00;0.00;0.62;2.13;1.70;;;21.80;24.00;;;;;;2267728;61;20364;-67
2024/02/26 03:16:44;0.00;0.00;0.62;0.00;0.00;0.62;2.50;1.83;;;21.80;24.00;;;;;;2267572;61;20454;-66
2024/02/26 03:19:29;0.00;0.00;0.62;0.00;0.00;0.62;2.47;1.60;;;21.80;24.00;;;;;;2267221;61;20363;-67
2024/02/26 03:22:14;0.00;0.00;0.62;0.00;0.00;0.62;2.63;1.40;;;21.80;24.00;;;;;;2267639;61;20417;-66
2024/02/26 03:24:58;0.00;0.00;0.62;0.00;0.00;0.62;1.97;1.40;;;21.80;24.00;;;;;;2267583;61;20387;-67
2024/02/26 03:27:44;0.00;0.00;0.62;0.00;0.00;0.62;2.30;1.50;;;21.70;23.90;;;;;;2267366;61;20371;-67
2024/02/26 03:30:29;0.00;0.00;0.62;0.00;0.00;0.62;2.10;1.33;;;21.70;23.90;;;;;;2267609;61;20387;-66
2024/02/26 03:33:13;0.00;0.00;0.62;0.00;0.00;0.62;2.40;1.60;;;21.70;23.90;;;;;;2267600;61;20363;-67
2024/02/26 03:35:58;0.00;0.00;0.62;0.00;0.00;0.62;2.37;1.80;;;21.70;23.90;;;;;;2267553;61;20463;-66
2024/02/26 03:38:42;0.00;0.00;0.62;0.00;0.00;0.62;2.50;1.70;;;21.70;23.90;;;;;;2267556;61;20378;-67
2024/02/26 03:41:27;0.00;0.00;0.62;0.00;0.00;0.62;2.63;1.63;;;21.70;23.90;;;;;;2267575;61;20375;-66
2024/02/26 03:44:13;0.00;0.00;0.62;0.00;0.00;0.62;2.00;1.20;;;21.70;23.90;;;;;;2267698;61;20446;-67
2024/02/26 03:46:58;0.00;0.00;0.62;0.00;0.00;0.62;2.20;1.40;;;21.70;23.90;;;;;;2263175;61;20376;-66
2024/02/26 03:49:42;0.00;0.00;0.62;0.00;0.00;0.62;2.70;1.67;;;21.70;24.00;;;;;;2263388;61;20392;-67
2024/02/26 03:52:27;0.00;0.00;0.62;0.00;0.00;0.62;2.50;1.67;;;21.70;23.90;;;;;;2263544;61;20360;-67
2024/02/26 03:55:12;0.00;0.00;0.62;0.00;0.00;0.62;1.97;1.40;;;21.70;24.00;;;;;;2263480;61;20395;-67
2024/02/26 03:57:56;0.00;0.00;0.62;0.00;0.00;0.62;2.60;1.57;;;21.70;23.90;;;;;;2263033;61;20455;-66
2024/02/26 04:00:43;0.00;0.00;0.62;0.00;0.00;0.62;2.53;1.53;;;21.70;24.00;;;;;;2416712;45;20949;-67
2024/02/26 04:03:27;0.00;0.00;0.62;0.00;0.00;0.62;1.97;1.30;;;21.70;23.90;;;;;;2259176;61;20438;-67
2024/02/26 04:06:14;0.00;0.00;0.62;0.00;0.00;0.62;2.03;1.40;;;21.70;24.00;;;;;;2256423;61;20476;-69
2024/02/26 04:08:59;0.00;0.00;0.62;0.00;0.00;0.62;2.00;1.40;;;21.70;24.00;;;;;;2260619;61;20375;-67
2024/02/26 04:11:43;0.00;0.00;0.62;0.00;0.00;0.62;2.97;1.63;;;21.70;24.00;;;;;;2264152;61;20465;-67
2024/02/26 04:14:28;0.00;0.00;0.62;0.00;0.00;0.62;2.23;1.37;;;21.70;23.90;;;;;;2267362;61;20516;-66
2024/02/26 04:17:14;0.00;0.00;0.62;0.00;0.00;0.62;2.47;1.50;;;21.70;24.00;;;;;;2267390;61;20371;-67
2024/02/26 04:19:58;0.00;0.00;0.62;0.00;0.00;0.62;2.50;1.60;;;21.60;23.90;;;;;;2263492;61;20424;-67
2024/02/26 04:22:43;0.00;0.00;0.62;0.00;0.00;0.62;2.50;1.57;;;21.70;24.00;;;;;;2263313;61;20394;-67
2024/02/26 04:25:28;0.00;0.00;0.62;0.00;0.00;0.62;1.90;1.20;;;21.70;24.50;;;;;;2263187;61;20387;-66
2024/02/26 04:28:13;0.00;0.00;0.62;0.00;0.00;0.62;2.07;1.30;;;21.70;24.00;;;;;;2263248;61;20411;-67
2024/02/26 04:30:58;0.00;0.00;0.62;0.00;0.00;0.62;2.53;1.43;;;21.70;24.00;;;;;;2263092;61;20399;-67
2024/02/26 04:33:43;0.00;0.00;0.62;0.00;0.00;0.62;1.77;1.10;;;21.60;23.90;;;;;;2262984;61;20951;-67
2024/02/26 04:36:28;0.00;0.00;0.62;0.00;0.00;0.62;2.30;1.50;;;21.70;24.00;;;;;;2262699;61;20391;-67
2024/02/26 04:39:12;0.00;0.00;0.62;0.00;0.00;0.62;2.57;1.50;;;21.60;23.90;;;;;;2263214;61;20448;-66
2024/02/26 04:41:57;0.00;0.00;0.62;0.00;0.00;0.62;2.27;1.47;;;21.60;23.90;;;;;;2262801;61;20372;-66
2024/02/26 04:44:42;0.00;0.00;0.62;0.00;0.00;0.62;1.90;1.30;;;21.60;23.90;;;;;;2262834;61;20501;-67
2024/02/26 04:47:26;0.00;0.00;0.62;0.00;0.00;0.62;2.67;1.63;;;21.60;23.90;;;;;;2262561;61;20414;-67
2024/02/26 04:50:12;0.00;0.00;0.62;0.00;0.00;0.62;1.60;1.10;;;21.60;23.90;;;;;;2263077;61;20380;-67
2024/02/26 04:52:57;0.00;0.00;0.62;0.00;0.00;0.62;2.20;1.50;;;21.60;23.90;;;;;;2262980;61;20363;-67
2024/02/26 04:55:41;0.00;0.00;0.62;0.00;0.00;0.62;2.60;1.40;;;21.60;23.90;;;;;;2262876;61;20844;-68
2024/02/26 04:58:26;0.00;0.00;0.62;0.00;0.00;0.62;2.13;1.33;;;21.60;23.90;;;;;;2262839;61;20424;-67
2024/02/26 05:01:11;0.00;0.00;0.62;0.00;0.00;0.62;2.23;1.20;;;21.60;23.90;;;;;;2263121;61;20479;-66
2024/02/26 05:03:55;0.00;0.00;0.62;0.00;0.00;0.62;1.80;1.07;;;21.60;24.00;;;;;;2262772;61;20418;-66
2024/02/26 05:06:41;0.00;0.00;0.62;0.00;0.00;0.62;1.77;1.10;;;21.60;23.90;;;;;;2259633;61;20392;-67
2024/02/26 05:09:26;0.00;0.00;0.62;0.00;0.00;0.62;1.87;1.30;;;21.60;23.90;;;;;;2263440;61;20769;-67
2024/02/26 05:12:10;0.00;0.00;0.62;0.00;0.00;0.62;2.80;1.50;;;21.60;23.90;;;;;;2265763;61;20406;-67
2024/02/26 05:14:55;0.00;0.00;0.62;0.00;0.00;0.62;1.90;1.40;;;21.60;23.90;;;;;;2267658;61;20359;-67
2024/02/26 05:17:40;0.00;0.00;0.62;0.00;0.00;0.62;1.87;1.30;;;21.60;23.90;;;;;;2267587;61;20570;-67
2024/02/26 05:20:24;0.00;0.00;0.62;0.00;0.00;0.62;2.20;1.37;;;21.60;23.90;;;;;;2267584;61;20480;-67
2024/02/26 05:23:10;0.00;0.00;0.62;0.00;0.00;0.62;1.77;1.27;;;21.60;23.90;;;;;;2267918;61;20359;-67
2024/02/26 05:25:55;0.00;0.00;0.62;0.00;0.00;0.62;2.10;1.27;;;21.60;23.90;;;;;;2267514;61;20405;-66
2024/02/26 05:28:40;0.00;0.00;0.62;0.00;0.00;0.62;1.97;1.40;;;21.60;23.90;;;;;;2267474;61;20421;-66
2024/02/26 05:31:24;0.00;0.00;0.62;0.00;0.00;0.62;2.03;1.30;;;21.60;23.90;;;;;;2267652;61;20993;-67
2024/02/26 05:34:09;0.00;0.00;0.62;0.00;0.00;0.62;1.93;1.20;;;21.60;23.90;;;;;;2267707;61;20455;-67
2024/02/26 05:36:53;0.00;0.00;0.62;0.00;0.00;0.62;1.70;1.03;;;21.60;23.90;;;;;;2267401;61;20421;-66
2024/02/26 05:39:39;0.00;0.00;0.62;0.00;0.00;0.62;1.50;0.93;;;21.60;23.90;;;;;;2267683;61;20367;-67
2024/02/26 05:42:24;0.00;0.00;0.62;0.00;0.00;0.62;1.90;1.10;;;21.60;24.00;;;;;;2267793;61;20370;-67
2024/02/26 05:45:09;0.00;0.00;0.62;0.00;0.00;0.62;2.13;1.27;;;21.60;23.90;;;;;;2267894;61;20437;-67
2024/02/26 05:47:53;0.00;0.00;0.62;0.00;0.00;0.62;1.43;0.97;;;21.50;23.90;;;;;;2264248;61;20506;-67
2024/02/26 05:50:38;0.00;0.00;0.62;0.00;0.00;0.62;2.10;1.20;;;21.50;23.90;;;;;;2263697;61;20430;-66
2024/02/26 05:53:23;0.00;0.00;0.62;0.00;0.00;0.62;1.80;1.10;;;21.60;23.90;;;;;;2263506;61;20363;-69
2024/02/26 05:56:09;0.00;0.00;0.62;0.00;0.00;0.62;1.80;1.30;;;21.60;23.90;;;;;;2263682;61;20827;-67
2024/02/26 05:58:54;0.00;0.00;0.62;0.00;0.00;0.62;1.93;1.17;;;21.60;23.90;;;;;;2263523;61;20946;-67
2024/02/26 06:01:38;0.00;0.00;0.62;0.00;0.00;0.62;1.77;1.20;;;21.60;23.90;;;;;;2263327;61;20395;-68
2024/02/26 06:04:23;0.00;0.00;0.62;0.00;0.00;0.62;1.90;1.10;;;21.50;23.90;;;;;;2263713;61;20792;-68
2024/02/26 06:07:08;0.00;0.00;0.62;0.00;0.00;0.62;2.37;1.40;;;21.50;23.90;;;;;;2263572;61;20913;-68
2024/02/26 06:09:52;0.00;0.00;0.62;0.00;0.00;0.62;2.50;1.40;;;21.50;23.90;;;;;;2263164;61;20999;-68
2024/02/26 06:12:38;0.00;0.00;0.62;0.00;0.00;0.62;2.13;1.40;;;21.50;23.80;;;;;;2266188;61;20459;-69
2024/02/26 06:15:23;0.00;0.00;0.62;0.00;0.00;0.62;2.70;1.63;;;21.50;23.90;;;;;;2267811;61;20409;-68
2024/02/26 06:18:08;0.00;0.00;0.62;0.00;0.00;0.62;2.20;1.80;;;21.50;23.90;;;;;;2265710;61;20392;-69
2024/02/26 06:20:52;0.00;0.00;0.62;0.00;0.00;0.62;3.07;2.30;;;21.50;23.90;;;;;;2263138;61;20392;-68
2024/02/26 06:23:37;0.00;0.00;0.62;0.00;0.00;0.62;2.60;1.60;;;21.50;23.90;;;;;;2263423;61;20372;-68
2024/02/26 06:26:22;0.00;0.00;0.62;0.00;0.00;0.62;2.70;1.80;;;21.50;23.90;;;;;;2263450;61;20360;-68
2024/02/26 06:29:08;0.00;0.00;0.62;0.00;0.00;0.62;3.60;2.50;;;21.50;23.90;;;;;;2263436;61;20372;-68
2024/02/26 06:31:52;0.00;0.00;0.62;0.00;0.00;0.62;2.80;2.10;;;21.50;23.90;;;;;;2263171;61;20499;-68
2024/02/26 06:34:38;0.00;0.00;0.62;0.00;0.00;0.62;2.50;1.77;;;21.50;23.90;;;;;;2260297;61;20418;-68
2024/02/26 06:37:23;0.00;0.00;0.62;0.00;0.00;0.62;3.73;2.60;;;21.50;23.90;;;;;;2263616;61;20375;-68
2024/02/26 06:40:08;0.00;0.00;0.62;0.00;0.00;0.62;4.13;2.60;;;21.50;23.90;;;;;;2263356;61;20430;-69
2024/02/26 06:42:53;0.00;0.00;0.62;0.00;0.00;0.62;2.80;1.73;;;21.50;23.90;;;;;;2263307;61;20450;-68
2024/02/26 06:45:39;0.00;0.00;0.62;0.00;0.00;0.62;2.53;1.87;;;21.50;23.90;;;;;;2263343;61;20400;-69
2024/02/26 06:48:24;0.00;0.00;0.62;0.00;0.00;0.62;3.20;2.30;;;21.50;23.90;;;;;;2267059;61;20846;-68
2024/02/26 06:51:09;0.00;0.00;0.62;0.00;0.00;0.62;3.37;2.20;;;21.50;23.90;;;;;;2267461;61;20390;-68
2024/02/26 06:53:53;0.00;0.00;0.62;0.00;0.00;0.62;2.97;2.60;;;21.50;23.90;;;;;;2267136;61;20406;-68
2024/02/26 06:56:38;0.00;0.00;0.62;0.00;0.00;0.62;3.67;2.87;;;21.50;23.90;;;;;;2267342;61;20378;-69
2024/02/26 06:59:23;0.00;0.00;0.62;0.00;0.00;0.62;3.70;2.60;;;21.50;23.90;;;;;;2267604;61;20554;-68
2024/02/26 07:02:09;0.00;0.00;0.62;0.00;0.00;0.62;3.70;3.23;;;21.50;23.90;;;;;;2263190;61;20491;-69
2024/02/26 07:04:56;0.00;0.00;0.62;0.00;0.00;0.62;4.10;2.83;;;21.40;23.80;;;;;;2263132;61;20445;-69
2024/02/26 07:07:40;0.00;0.00;0.62;0.00;0.00;0.62;4.63;3.80;;;21.50;23.90;;;;;;2263353;61;20443;-68
2024/02/26 07:10:25;0.00;0.00;0.62;0.00;0.00;0.62;4.20;3.33;;;21.50;23.90;;;;;;2260132;61;20391;-68
2024/02/26 07:13:09;0.00;0.00;0.62;0.00;0.00;0.62;4.57;3.60;;;21.40;23.80;;;;;;2263168;61;20376;-68
2024/02/26 07:15:54;0.00;0.00;0.62;0.00;0.00;0.62;4.27;3.83;;;21.50;23.90;;;;;;2263412;61;20979;-68
2024/02/26 07:18:41;0.00;0.00;0.62;0.00;0.00;0.62;5.40;3.93;;;21.40;23.90;;;;;;2263683;61;20399;-69
2024/02/26 07:21:25;0.00;0.00;0.62;0.00;0.00;0.62;5.23;4.27;;;21.40;23.90;;;;;;2263584;61;20739;-68
2024/02/26 07:24:09;0.00;0.00;0.62;0.00;0.00;0.62;5.10;4.30;;;21.40;23.80;;;;;;2263354;61;20398;-69
2024/02/26 07:26:57;0.00;0.00;0.62;0.00;0.00;0.62;5.67;4.10;;;21.40;23.90;;;;;;2263386;61;20360;-68
2024/02/26 07:29:42;0.00;0.00;0.62;0.00;0.00;0.62;6.83;5.13;;;21.40;23.90;;;;;;2263405;61;20387;-68
2024/02/26 07:32:26;0.00;0.00;0.62;0.00;0.00;0.62;5.43;4.53;;;21.40;23.80;;;;;;2263562;61;20421;-68
2024/02/26 07:35:12;0.00;0.00;0.62;0.00;0.00;0.62;6.80;5.50;;;21.40;23.90;;;;;;2263544;61;20363;-69
2024/02/26 07:37:57;0.00;0.00;0.62;0.00;0.00;0.62;7.70;5.33;;;21.40;23.90;;;;;;2263267;61;20363;-69
2024/02/26 07:40:41;0.00;0.00;0.62;0.00;0.00;0.62;7.40;6.00;;;21.40;23.90;;;;;;2258949;61;20396;-68
2024/02/26 07:43:26;0.00;0.00;0.62;0.00;0.00;0.62;7.30;5.27;;;21.40;23.90;;;;;;2259546;61;20380;-68
2024/02/26 07:46:11;0.00;0.00;0.62;0.00;0.00;0.62;8.47;6.60;;;21.40;23.90;;;;;;2259133;61;20361;-68
2024/02/26 07:48:56;0.00;0.00;0.62;0.00;0.00;0.62;8.23;6.37;;;21.40;23.90;;;;;;2665466;45;20506;-68
2024/02/26 07:51:42;0.00;0.00;0.62;0.00;0.00;0.62;6.77;6.07;;;21.40;23.90;;;;;;2258168;61;20918;-69
2024/02/26 07:54:27;0.00;0.00;0.62;0.00;0.00;0.62;8.97;8.07;;;21.40;23.90;;;;;;2256098;61;20365;-69
2024/02/26 07:57:11;0.00;0.00;0.62;0.00;0.00;0.62;8.67;6.70;;;21.40;23.90;;;;;;2259410;61;20404;-69
2024/02/26 07:59:56;0.00;0.00;0.62;0.00;0.00;0.62;8.47;6.90;;;21.40;23.90;;;;;;2259748;61;20407;-69
2024/02/26 08:02:41;0.00;0.00;0.62;0.00;0.00;0.62;10.50;7.50;;;21.40;23.90;;;;;;2263190;61;20364;-69
2024/02/26 08:05:26;0.00;0.00;0.62;0.00;0.00;0.62;9.83;8.10;;;21.40;23.90;;;;;;2263146;61;20387;-68
2024/02/26 08:08:12;0.00;0.00;0.62;0.00;0.00;0.62;11.67;8.20;;;21.40;23.90;;;;;;2263006;61;20371;-69
2024/02/26 08:10:57;0.00;0.00;0.62;0.00;0.00;0.62;9.37;8.40;;;21.40;23.90;;;;;;2263309;61;20387;-69
2024/02/26 08:13:42;0.00;0.00;0.62;0.00;0.00;0.62;9.33;8.37;;;21.40;23.90;;;;;;2711908;45;20367;-69
2024/02/26 08:16:27;0.00;0.00;0.62;0.00;0.00;0.62;9.80;8.80;;;21.40;23.90;;;;;;2258925;61;20373;-69
2024/02/26 08:19:14;0.00;0.00;0.62;0.00;0.00;0.62;13.00;9.30;;;21.40;23.90;;;;;;2259344;61;20359;-68
2024/02/26 08:21:58;0.00;0.00;0.62;0.00;0.00;0.62;10.07;8.03;;;21.40;23.90;;;;;;2259134;61;20949;-68
2024/02/26 08:24:44;0.00;0.00;0.62;0.00;0.00;0.62;9.83;8.73;;;21.40;23.90;;;;;;2259319;61;20510;-68
2024/02/26 08:27:29;0.00;0.00;0.62;0.00;0.00;0.62;12.23;10.00;;;21.40;23.90;;;;;;2259237;61;20771;-70
2024/02/26 08:30:16;0.00;0.00;0.62;0.00;0.00;0.62;11.10;9.30;;;21.40;23.90;;;;;;2259193;61;20412;-68
2024/02/26 08:33:01;0.00;0.00;0.62;0.00;0.00;0.62;11.17;9.43;;;21.40;23.90;;;;;;2255687;61;20368;-69
2024/02/26 08:35:46;0.00;0.00;0.62;0.00;0.00;0.62;11.93;10.57;;;21.40;23.90;;;;;;2259523;61;20411;-68
2024/02/26 08:38:30;0.00;0.00;0.62;0.00;0.00;0.62;12.97;10.10;;;21.40;23.90;;;;;;2258786;61;20366;-68
2024/02/26 08:41:16;0.00;0.00;0.62;0.00;0.00;0.62;10.97;9.50;;;21.40;23.90;;;;;;2259147;61;20396;-69
2024/02/26 08:44:01;0.00;0.00;0.62;0.00;0.00;0.62;12.70;10.17;;;21.40;23.90;;;;;;2258915;61;20442;-69
2024/02/26 08:46:45;0.00;0.00;0.62;0.00;0.00;0.62;12.10;10.10;;;21.40;23.90;;;;;;2259972;61;20372;-68
2024/02/26 08:49:31;0.00;0.00;0.62;0.00;0.00;0.62;12.30;10.33;;;21.40;23.90;;;;;;2267158;61;20458;-69
2024/02/26 08:52:16;0.00;0.00;0.62;0.00;0.00;0.62;12.83;10.57;;;21.40;23.90;;;;;;2267175;61;20437;-68
2024/02/26 08:55:01;0.00;0.00;0.62;0.00;0.00;0.62;11.90;10.13;;;21.40;23.90;;;;;;2267183;61;20412;-69
2024/02/26 08:57:48;0.00;0.00;0.62;0.00;0.00;0.62;13.03;10.27;;;21.40;23.90;;;;;;2263468;61;20434;-69
2024/02/26 09:00:33;0.00;0.00;0.62;0.00;0.00;0.62;12.23;9.57;;;21.40;23.90;;;;;;2263011;61;21222;-68
2024/02/26 09:03:17;0.00;0.00;0.62;0.00;0.00;0.62;13.00;10.10;;;21.40;23.90;;;;;;2263262;61;20406;-68
2024/02/26 09:06:02;0.00;0.00;0.62;0.00;0.00;0.62;15.13;12.93;;;21.40;23.90;;;;;;2263166;61;20364;-69
2024/02/26 09:08:46;0.00;0.00;0.62;0.00;0.00;0.62;14.27;11.73;;;21.40;23.90;;;;;;2263247;61;20368;-68
2024/02/26 09:11:31;0.00;0.00;0.62;0.00;0.00;0.62;13.67;11.47;;;21.40;23.90;;;;;;2262376;61;20388;-68
2024/02/26 09:14:17;0.00;0.00;0.62;0.00;0.00;0.62;12.87;11.20;;;21.40;23.90;;;;;;2259120;61;20906;-69
2024/02/26 09:17:02;0.00;0.00;0.62;0.00;0.00;0.62;14.30;11.63;;;21.40;23.90;;;;;;2259253;61;20380;-68
2024/02/26 09:19:47;0.00;0.00;0.62;0.00;0.00;0.62;14.43;11.80;;;21.50;24.00;;;;;;2259373;61;20392;-68
2024/02/26 09:22:31;0.00;0.00;0.62;0.00;0.00;0.62;13.63;11.77;;;21.40;23.90;;;;;;2259096;61;20431;-69
2024/02/26 09:25:16;0.00;0.00;0.62;0.00;0.00;0.62;13.30;11.63;;;21.40;23.90;;;;;;2259049;61;20507;-69
2024/02/26 09:28:01;0.00;0.00;0.62;0.00;0.00;0.62;12.33;10.97;;;21.50;23.90;;;;;;2258962;61;20636;-68
2024/02/26 09:30:49;0.00;0.00;0.62;0.00;0.00;0.62;13.50;11.33;;;21.50;23.90;;;;;;2259212;61;20434;-68
2024/02/26 09:33:34;0.00;0.00;0.62;0.00;0.00;0.62;13.37;11.33;;;21.50;23.90;;;;;;2259209;61;20941;-68
2024/02/26 09:36:18;0.00;0.00;0.62;0.00;0.00;0.62;12.67;10.50;;;21.50;23.90;;;;;;2259141;61;20357;-68
2024/02/26 09:39:03;0.00;0.00;0.62;0.00;0.00;0.62;11.70;10.13;;;21.50;23.90;;;;;;2259330;61;20447;-68
2024/02/26 09:41:48;0.00;0.00;0.62;0.00;0.00;0.62;11.40;10.20;;;21.50;23.90;;;;;;2259274;61;20457;-68
2024/02/26 09:44:38;0.00;0.00;0.62;0.00;0.00;0.62;12.13;10.10;;;21.50;23.80;;;;;;2258819;61;20800;-67
2024/02/26 09:47:28;0.00;0.00;0.62;0.00;0.00;0.62;10.47;9.30;;;21.50;23.80;;;;;;2263055;61;20370;-68
2024/02/26 09:50:14;0.00;0.00;0.62;0.00;0.00;0.62;11.67;9.73;;;21.50;23.90;;;;;;2267244;61;20379;-68
2024/02/26 09:53:02;0.00;0.00;0.62;0.00;0.00;0.62;11.07;8.40;;;21.50;23.80;;;;;;2267336;61;20367;-68
2024/02/26 09:55:47;0.00;0.00;0.62;0.00;0.00;0.62;10.40;8.90;;;21.50;23.80;;;;;;2267689;61;21058;-68
2024/02/26 09:58:33;0.00;0.00;0.62;0.00;0.00;0.62;9.63;8.23;;;21.50;23.80;;;;;;2267753;61;20892;-68
2024/02/26 10:01:19;0.00;0.00;0.62;0.00;0.00;0.62;11.37;9.50;;;21.50;23.80;;;;;;2267968;61;20923;-68
2024/02/26 10:04:08;0.00;0.00;0.62;0.00;0.00;0.62;8.80;7.90;;;21.50;23.80;;;;;;2268043;61;20399;-68
2024/02/26 10:06:54;0.00;0.00;0.62;0.00;0.00;0.62;9.40;7.93;;;21.50;23.80;;;;;;2267667;61;20371;-68
2024/02/26 10:09:39;0.00;0.00;0.62;0.00;0.00;0.62;10.10;7.50;;;21.50;23.80;;;;;;2267814;61;20417;-68
2024/02/26 10:12:26;0.00;0.00;0.62;0.00;0.00;0.62;8.93;7.60;;;21.50;23.80;;;;;;2265369;61;20379;-68
2024/02/26 10:15:11;0.00;0.00;0.62;0.00;0.00;0.62;8.03;7.20;;;21.50;23.80;;;;;;2263857;61;20758;-68
2024/02/26 10:17:56;0.00;0.00;0.62;0.00;0.00;0.62;9.37;7.47;;;21.50;23.80;;;;;;2263617;61;20391;-68
2024/02/26 10:20:42;0.00;0.00;0.62;0.00;0.00;0.62;7.57;6.33;;;21.50;23.80;;;;;;2263854;61;20964;-67
2024/02/26 10:23:26;0.00;0.00;0.62;0.00;0.00;0.62;7.10;6.30;;;21.50;23.80;;;;;;2263936;61;20371;-68
2024/02/26 10:26:12;0.00;0.00;0.62;0.00;0.00;0.62;7.57;6.70;;;21.50;23.80;;;;;;2263919;61;20360;-68
2024/02/26 10:29:01;0.00;0.00;0.62;0.00;0.00;0.62;6.83;6.13;;;21.50;23.80;;;;;;2263476;61;20371;-68
2024/02/26 10:31:46;0.00;0.00;0.62;0.00;0.00;0.62;8.67;6.00;;;21.50;23.80;;;;;;2263860;61;20434;-67
2024/02/26 10:34:31;0.00;0.00;0.62;0.00;0.00;0.62;7.13;6.43;;;21.50;23.80;;;;;;2264175;61;20769;-68
2024/02/26 10:37:17;0.00;0.00;0.62;0.00;0.00;0.62;7.00;6.23;;;21.50;23.80;;;;;;2263824;61;20952;-68
2024/02/26 10:40:03;0.00;0.00;0.62;0.00;0.00;0.62;6.97;5.80;;;21.50;23.80;;;;;;2263581;61;20498;-68
2024/02/26 10:42:47;0.00;0.00;0.62;0.00;0.00;0.62;6.77;5.73;;;21.50;23.80;;;;;;2263661;61;20802;-68
2024/02/26 10:45:32;0.00;0.00;0.62;0.00;0.00;0.62;6.73;5.93;;;21.50;23.80;;;;;;2263691;61;20465;-68
2024/02/26 10:48:18;0.00;0.00;0.62;0.00;0.00;0.62;6.80;6.00;;;21.50;23.80;;;;;;2267212;61;20410;-68
2024/02/26 10:51:03;0.00;0.00;0.62;0.00;0.00;0.62;6.53;5.70;;;21.50;23.80;;;;;;2267640;61;20382;-67